createdAt,value
2022-11-29T00:01:17.952Z,81.70
2022-11-29T00:03:45.050Z,82.00
2022-11-29T00:06:17.395Z,82.30
2022-11-29T00:08:45.015Z,82.40
2022-11-29T00:11:35.317Z,82.50
2022-11-29T00:14:02.325Z,82.50
2022-11-29T00:16:29.292Z,82.50
2022-11-29T00:18:56.112Z,82.40
2022-11-29T00:21:22.911Z,82.20
2022-11-29T00:23:49.777Z,82.10
2022-11-29T00:26:16.749Z,82.00
2022-11-29T00:28:43.586Z,81.90
2022-11-29T00:31:22.040Z,81.70
2022-11-29T00:33:49.369Z,81.60
2022-11-29T00:36:16.986Z,81.70
2022-11-29T00:38:44.160Z,81.80
2022-11-29T00:41:11.070Z,81.80
2022-11-29T00:43:38.398Z,81.70
2022-11-29T00:46:05.843Z,81.70
2022-11-29T00:48:32.757Z,81.70
2022-11-29T00:50:59.592Z,81.70
2022-11-29T00:53:26.384Z,81.70
2022-11-29T00:55:54.182Z,81.60
2022-11-29T00:58:21.534Z,81.50
2022-11-29T01:00:48.990Z,81.60
2022-11-29T01:03:17.004Z,81.60
2022-11-29T01:05:44.742Z,81.70
2022-11-29T01:08:12.668Z,81.80
2022-11-29T01:10:40.164Z,82.10
2022-11-29T01:13:07.896Z,82.20
2022-11-29T01:15:34.649Z,82.10
2022-11-29T01:18:01.561Z,82.10
2022-11-29T01:20:28.605Z,82.20
2022-11-29T01:22:55.443Z,82.20
2022-11-29T01:25:22.402Z,82.30
2022-11-29T01:27:49.223Z,82.20
2022-11-29T01:30:16.042Z,82.20
2022-11-29T01:32:42.904Z,82.20
2022-11-29T01:35:09.780Z,82.30
2022-11-29T01:37:36.673Z,82.30
2022-11-29T01:40:04.004Z,82.30
2022-11-29T01:42:30.881Z,82.30
2022-11-29T01:45:12.723Z,82.20
2022-11-29T01:47:44.695Z,82.10
2022-11-29T01:50:11.768Z,82.10
2022-11-29T01:52:39.114Z,82.10
2022-11-29T01:55:07.553Z,82.10
2022-11-29T01:57:36.601Z,82.30
2022-11-29T02:00:14.559Z,82.40
2022-11-29T02:02:56.292Z,82.30
2022-11-29T02:05:24.596Z,82.30
2022-11-29T02:07:54.332Z,82.20
2022-11-29T02:10:32.894Z,82.20
2022-11-29T02:13:32.552Z,82.20
2022-11-29T02:16:13.064Z,82.10
2022-11-29T02:18:52.299Z,82.00
2022-11-29T02:21:28.134Z,82.10
2022-11-29T02:24:08.954Z,82.00
2022-11-29T02:26:53.774Z,81.90
2022-11-29T02:29:23.270Z,82.00
2022-11-29T02:32:17.813Z,82.10
2022-11-29T02:34:54.261Z,82.20
2022-11-29T02:37:24.088Z,82.30
2022-11-29T02:40:18.164Z,82.30
2022-11-29T02:43:08.062Z,82.40
2022-11-29T02:45:43.744Z,82.40
2022-11-29T02:48:29.374Z,82.40
2022-11-29T02:51:08.346Z,82.30
2022-11-29T02:53:43.994Z,82.20
2022-11-29T02:56:22.646Z,82.30
2022-11-29T02:59:15.663Z,82.50
2022-11-29T03:02:02.494Z,82.70
2022-11-29T03:04:48.049Z,82.70
2022-11-29T03:07:35.754Z,82.70
2022-11-29T03:10:29.046Z,82.40
2022-11-29T03:12:56.528Z,82.30
2022-11-29T03:15:34.324Z,82.50
2022-11-29T03:18:20.479Z,82.70
2022-11-29T03:21:18.460Z,82.90
2022-11-29T03:23:50.141Z,83.00
2022-11-29T03:26:41.811Z,82.80
2022-11-29T03:29:27.414Z,82.70
2022-11-29T03:32:17.680Z,82.90
2022-11-29T03:34:56.960Z,83.20
2022-11-29T03:37:38.676Z,83.30
2022-11-29T03:40:10.473Z,83.60
2022-11-29T03:42:48.930Z,83.70
2022-11-29T03:45:40.596Z,83.50
2022-11-29T03:48:30.289Z,83.80
2022-11-29T03:51:03.620Z,83.60
2022-11-29T03:53:48.001Z,83.40
2022-11-29T03:56:41.475Z,83.40
2022-11-29T03:59:33.971Z,83.30
2022-11-29T04:02:03.911Z,83.30
2022-11-29T04:04:33.524Z,83.20
2022-11-29T04:07:35.721Z,83.00
2022-11-29T04:10:36.369Z,83.00
2022-11-29T04:13:23.132Z,83.00
2022-11-29T04:16:21.012Z,83.00
2022-11-29T04:19:18.313Z,83.00
2022-11-29T04:22:12.929Z,83.00
2022-11-29T04:25:09.313Z,83.00
2022-11-29T04:28:13.729Z,82.90
2022-11-29T04:31:08.279Z,82.90
2022-11-29T04:33:56.469Z,82.90
2022-11-29T04:36:47.730Z,82.80
2022-11-29T04:39:31.618Z,82.80
2022-11-29T04:42:24.748Z,83.00
2022-11-29T04:45:09.058Z,83.10
2022-11-29T04:48:06.745Z,83.30
2022-11-29T04:50:57.466Z,83.60
2022-11-29T04:53:47.846Z,83.90
2022-11-29T04:56:28.661Z,83.80
2022-11-29T04:59:02.890Z,83.70
2022-11-29T05:01:38.973Z,83.70
2022-11-29T05:04:27.883Z,83.80
2022-11-29T05:07:19.227Z,83.70
2022-11-29T05:10:30.609Z,83.50
2022-11-29T05:13:11.622Z,83.40
2022-11-29T05:15:58.649Z,83.30
2022-11-29T05:18:53.677Z,83.50
2022-11-29T05:21:50.843Z,83.60
2022-11-29T05:24:45.666Z,83.60
2022-11-29T05:27:32.260Z,83.60
2022-11-29T05:30:22.874Z,83.80
2022-11-29T05:33:11.587Z,83.70
2022-11-29T05:36:06.716Z,83.60
2022-11-29T05:38:54.729Z,83.40
2022-11-29T05:41:35.508Z,83.30
2022-11-29T05:44:25.854Z,83.30
2022-11-29T05:47:02.096Z,83.20
2022-11-29T05:49:57.239Z,83.10
2022-11-29T05:52:56.468Z,83.00
2022-11-29T05:55:34.761Z,83.20
2022-11-29T05:58:17.563Z,83.60
2022-11-29T06:00:59.636Z,83.70
2022-11-29T06:03:40.609Z,83.60
2022-11-29T06:06:16.833Z,83.50
2022-11-29T06:09:04.061Z,83.40
2022-11-29T06:11:46.407Z,83.50
2022-11-29T06:14:44.461Z,83.60
2022-11-29T06:17:41.582Z,83.70
2022-11-29T06:20:36.153Z,83.70
2022-11-29T06:23:13.726Z,83.50
2022-11-29T06:26:04.040Z,83.40
2022-11-29T06:28:49.601Z,83.40
2022-11-29T06:31:34.820Z,83.30
2022-11-29T06:34:20.348Z,83.20
2022-11-29T06:37:11.926Z,83.30
2022-11-29T06:39:38.903Z,83.40
2022-11-29T06:42:05.672Z,83.60
2022-11-29T06:44:32.740Z,83.80
2022-11-29T06:47:09.328Z,83.90
2022-11-29T06:50:03.033Z,84.10
2022-11-29T06:53:16.762Z,84.20
2022-11-29T06:56:08.294Z,84.30
2022-11-29T06:58:44.703Z,84.20
2022-11-29T07:01:32.754Z,84.30
2022-11-29T07:04:07.357Z,84.60
2022-11-29T07:06:35.649Z,84.70
2022-11-29T07:09:10.669Z,84.80
2022-11-29T07:11:38.041Z,84.80
2022-11-29T07:14:05.211Z,84.90
2022-11-29T07:16:47.136Z,85.10
2022-11-29T07:19:25.895Z,85.20
2022-11-29T07:22:15.488Z,85.10
2022-11-29T07:25:03.601Z,85.10
2022-11-29T07:27:47.304Z,85.10
2022-11-29T07:30:20.860Z,85.00
2022-11-29T07:33:26.964Z,85.00
2022-11-29T07:36:18.613Z,85.20
2022-11-29T07:38:55.567Z,85.20
2022-11-29T07:41:45.805Z,85.20
2022-11-29T07:44:30.429Z,85.30
2022-11-29T07:46:57.227Z,85.30
2022-11-29T07:49:24.074Z,85.30
2022-11-29T07:51:51.006Z,85.30
2022-11-29T07:54:19.765Z,85.30
2022-11-29T07:56:46.717Z,85.40
2022-11-29T07:59:14.544Z,85.50
2022-11-29T08:01:41.806Z,85.50
2022-11-29T08:04:09.017Z,85.40
2022-11-29T08:06:36.750Z,85.40
2022-11-29T08:09:04.616Z,85.30
2022-11-29T08:11:31.402Z,85.30
2022-11-29T08:14:03.450Z,85.00
2022-11-29T08:16:30.383Z,84.90
2022-11-29T08:18:57.166Z,85.10
2022-11-29T08:21:23.993Z,85.20
2022-11-29T08:23:51.486Z,85.10
2022-11-29T08:26:19.528Z,84.90
2022-11-29T08:28:51.820Z,84.70
2022-11-29T08:31:19.947Z,84.60
2022-11-29T08:33:46.996Z,84.50
2022-11-29T08:36:16.942Z,84.30
2022-11-29T08:38:44.022Z,84.40
2022-11-29T08:41:13.115Z,84.50
2022-11-29T08:43:40.284Z,84.50
2022-11-29T08:46:07.387Z,84.40
2022-11-29T08:48:35.540Z,84.20
2022-11-29T08:51:02.763Z,83.80
2022-11-29T08:53:41.680Z,83.80
2022-11-29T08:56:53.398Z,83.80
2022-11-29T08:59:00.522Z,83.80
2022-11-29T09:01:29.107Z,83.80
2022-11-29T09:03:59.661Z,83.90
2022-11-29T09:06:28.986Z,83.90
2022-11-29T09:08:56.855Z,84.00
2022-11-29T09:11:26.352Z,84.00
2022-11-29T09:13:56.060Z,84.00
2022-11-29T09:16:25.705Z,83.90
2022-11-29T09:18:55.744Z,83.80
2022-11-29T09:21:25.045Z,83.70
2022-11-29T09:23:58.765Z,83.50
2022-11-29T09:26:32.012Z,83.40
2022-11-29T09:29:03.917Z,83.40
2022-11-29T09:31:33.442Z,83.20
2022-11-29T09:34:00.421Z,83.40
2022-11-29T09:36:29.475Z,83.50
2022-11-29T09:38:57.453Z,83.90
2022-11-29T09:42:22.104Z,84.20
2022-11-29T09:45:01.384Z,84.40
2022-11-29T09:47:37.420Z,84.10
2022-11-29T09:50:33.670Z,84.10
2022-11-29T09:53:38.153Z,84.30
2022-11-29T09:56:33.702Z,84.20
2022-11-29T09:59:09.756Z,84.40
2022-11-29T10:01:45.058Z,84.70
2022-11-29T10:04:19.202Z,84.90
2022-11-29T10:06:56.964Z,84.60
2022-11-29T10:09:37.091Z,84.20
2022-11-29T10:12:18.989Z,84.50
2022-11-29T10:14:49.335Z,84.70
2022-11-29T10:17:53.897Z,84.60
2022-11-29T10:20:24.446Z,84.20
2022-11-29T10:23:00.143Z,84.50
2022-11-29T10:25:48.726Z,84.80
2022-11-29T10:28:30.614Z,84.50
2022-11-29T10:31:06.039Z,83.90
2022-11-29T10:33:37.122Z,83.70
2022-11-29T10:36:21.602Z,83.40
2022-11-29T10:38:50.310Z,83.40
2022-11-29T10:41:22.189Z,83.40
2022-11-29T10:43:51.305Z,83.00
2022-11-29T10:46:36.080Z,83.10
2022-11-29T10:49:10.360Z,83.20
2022-11-29T10:51:37.269Z,83.40
2022-11-29T10:54:43.938Z,83.20
2022-11-29T10:57:17.725Z,82.90
2022-11-29T10:59:58.557Z,82.90
2022-11-29T11:02:25.669Z,83.10
2022-11-29T11:04:52.713Z,82.90
2022-11-29T11:07:29.519Z,82.70
2022-11-29T11:09:57.975Z,82.60
2022-11-29T11:12:30.963Z,82.40
2022-11-29T11:15:25.891Z,82.20
2022-11-29T11:18:03.812Z,81.90
2022-11-29T11:20:37.771Z,81.50
2022-11-29T11:23:22.679Z,81.20
2022-11-29T11:25:57.186Z,81.10
2022-11-29T11:28:35.608Z,80.90
2022-11-29T11:31:08.284Z,80.70
2022-11-29T11:33:41.124Z,80.60
2022-11-29T11:36:13.045Z,80.60
2022-11-29T11:38:49.577Z,80.60
2022-11-29T11:41:51.915Z,80.70
2022-11-29T11:44:46.458Z,80.60
2022-11-29T11:47:18.615Z,80.60
2022-11-29T11:49:50.364Z,80.90
2022-11-29T11:52:22.737Z,81.00
2022-11-29T11:54:57.406Z,80.80
2022-11-29T11:57:26.055Z,81.00
2022-11-29T11:59:56.055Z,81.00
2022-11-29T12:02:37.205Z,80.60
2022-11-29T12:05:10.384Z,80.30
2022-11-29T12:08:07.701Z,80.10
2022-11-29T12:10:37.717Z,79.90
2022-11-29T12:13:05.235Z,80.20
2022-11-29T12:15:38.241Z,80.40
2022-11-29T12:18:28.256Z,80.80
2022-11-29T12:21:07.584Z,81.40
2022-11-29T12:23:55.314Z,81.30
2022-11-29T12:26:55.236Z,81.30
2022-11-29T12:29:19.123Z,81.30
2022-11-29T12:32:25.341Z,81.30
2022-11-29T12:35:26.205Z,81.10
2022-11-29T12:38:26.666Z,82.40
2022-11-29T12:41:05.792Z,83.60
2022-11-29T12:43:47.683Z,82.70
2022-11-29T12:46:20.579Z,82.80
2022-11-29T12:48:50.173Z,81.90
2022-11-29T12:51:39.947Z,81.30
2022-11-29T12:54:33.314Z,81.40
2022-11-29T12:57:12.134Z,80.70
2022-11-29T13:00:01.096Z,80.40
2022-11-29T13:02:58.748Z,79.70
2022-11-29T13:05:32.078Z,79.20
2022-11-29T13:08:27.030Z,79.40
2022-11-29T13:11:34.693Z,79.40
2022-11-29T13:14:41.600Z,79.30
2022-11-29T13:17:03.686Z,78.90
2022-11-29T13:19:56.697Z,78.90
2022-11-29T13:22:43.735Z,79.10
2022-11-29T13:25:29.184Z,79.40
2022-11-29T13:28:03.298Z,79.80
2022-11-29T13:30:30.432Z,80.30
2022-11-29T13:33:03.460Z,80.60
2022-11-29T13:35:47.119Z,80.50
2022-11-29T13:38:22.836Z,80.10
2022-11-29T13:41:21.587Z,79.80
2022-11-29T13:44:20.140Z,79.40
2022-11-29T13:47:02.855Z,78.80
2022-11-29T13:49:59.863Z,78.30
2022-11-29T13:52:33.818Z,78.20
2022-11-29T13:55:31.216Z,78.10
2022-11-29T13:58:19.652Z,78.00
2022-11-29T14:00:46.488Z,77.80
2022-11-29T14:03:29.064Z,78.20
2022-11-29T14:06:01.920Z,78.80
2022-11-29T14:09:17.426Z,79.10
2022-11-29T14:11:43.020Z,79.20
2022-11-29T14:14:15.798Z,79.10
2022-11-29T14:16:42.486Z,79.10
2022-11-29T14:19:09.212Z,79.10
2022-11-29T14:22:05.491Z,79.20
2022-11-29T14:24:32.237Z,79.00
2022-11-29T14:27:08.062Z,79.00
2022-11-29T14:29:50.023Z,79.50
2022-11-29T14:32:42.793Z,79.50
2022-11-29T14:35:12.697Z,79.40
2022-11-29T14:37:58.796Z,79.50
2022-11-29T14:40:28.804Z,79.70
2022-11-29T14:42:55.906Z,80.00
2022-11-29T14:45:24.836Z,79.90
2022-11-29T14:47:51.791Z,79.70
2022-11-29T14:50:33.992Z,79.10
2022-11-29T14:53:01.394Z,78.80
2022-11-29T14:55:31.935Z,78.70
2022-11-29T14:58:02.173Z,78.90
2022-11-29T15:00:36.496Z,79.00
2022-11-29T15:03:12.977Z,79.00
2022-11-29T15:06:11.433Z,79.00
2022-11-29T15:08:55.806Z,79.00
2022-11-29T15:11:52.752Z,79.00
2022-11-29T15:14:42.371Z,79.10
2022-11-29T15:17:46.983Z,79.20
2022-11-29T15:20:37.588Z,79.20
2022-11-29T15:23:09.222Z,79.20
2022-11-29T15:25:36.633Z,79.20
2022-11-29T15:28:05.918Z,79.50
2022-11-29T15:30:39.079Z,79.50
2022-11-29T15:33:08.889Z,79.50
2022-11-29T15:35:36.662Z,79.40
2022-11-29T15:38:03.510Z,79.40
2022-11-29T15:40:35.584Z,79.30
2022-11-29T15:43:40.086Z,79.30
2022-11-29T15:46:19.242Z,79.50
2022-11-29T15:48:46.025Z,79.50
2022-11-29T15:51:30.946Z,79.60
2022-11-29T15:54:12.151Z,79.80
2022-11-29T15:56:52.939Z,79.90
2022-11-29T15:59:42.488Z,80.00
2022-11-29T16:02:29.616Z,80.10
2022-11-29T16:05:00.193Z,80.30
2022-11-29T16:07:32.175Z,80.60
2022-11-29T16:10:10.529Z,80.90
2022-11-29T16:13:04.945Z,81.20
2022-11-29T16:15:39.250Z,81.40
2022-11-29T16:18:13.655Z,81.40
2022-11-29T16:20:40.870Z,81.50
2022-11-29T16:23:15.154Z,81.50
2022-11-29T16:26:04.372Z,81.70
2022-11-29T16:28:41.726Z,81.80
2022-11-29T16:31:11.406Z,81.60
2022-11-29T16:33:42.159Z,81.70
2022-11-29T16:36:23.869Z,81.50
2022-11-29T16:38:55.102Z,81.50
2022-11-29T16:41:29.895Z,81.40
2022-11-29T16:43:57.991Z,81.90
2022-11-29T16:46:27.837Z,82.00
2022-11-29T16:49:22.615Z,82.00
2022-11-29T16:51:51.218Z,82.20
2022-11-29T16:54:24.308Z,81.80
2022-11-29T16:56:52.765Z,82.30
2022-11-29T16:59:26.851Z,82.60
2022-11-29T17:01:56.071Z,82.70
2022-11-29T17:04:24.656Z,82.60
2022-11-29T17:06:54.103Z,82.80
2022-11-29T17:09:32.565Z,82.80
2022-11-29T17:12:04.483Z,83.00
2022-11-29T17:14:37.438Z,82.90
2022-11-29T17:17:06.084Z,82.70
2022-11-29T17:19:32.900Z,82.90
2022-11-29T17:21:59.697Z,83.20
2022-11-29T17:24:26.668Z,83.30
2022-11-29T17:26:53.494Z,83.30
2022-11-29T17:29:20.349Z,83.60
2022-11-29T17:31:50.315Z,83.30
2022-11-29T17:34:17.625Z,83.20
2022-11-29T17:36:45.185Z,83.30
2022-11-29T17:39:11.996Z,83.40
2022-11-29T17:41:38.775Z,83.40
2022-11-29T17:44:05.556Z,83.50
2022-11-29T17:46:34.942Z,83.60
2022-11-29T17:49:04.097Z,83.50
2022-11-29T17:54:17.969Z,83.20
2022-11-29T17:56:44.848Z,83.30
2022-11-29T17:59:11.803Z,83.50
2022-11-29T18:01:38.812Z,83.50
2022-11-29T18:04:06.769Z,83.30
2022-11-29T18:06:39.519Z,83.20
2022-11-29T18:09:08.407Z,83.40
2022-11-29T18:11:47.590Z,83.60
2022-11-29T18:14:21.297Z,83.30
2022-11-29T18:16:48.316Z,83.00
2022-11-29T18:19:18.184Z,83.00
2022-11-29T18:21:45.280Z,83.20
2022-11-29T18:24:12.087Z,83.30
2022-11-29T18:26:39.724Z,83.50
2022-11-29T18:29:07.549Z,83.60
2022-11-29T18:31:37.234Z,83.60
2022-11-29T18:34:07.186Z,83.70
2022-11-29T18:36:36.887Z,83.60
2022-11-29T18:39:10.085Z,83.50
2022-11-29T18:41:37.820Z,83.10
2022-11-29T18:44:10.441Z,82.70
2022-11-29T18:46:38.882Z,82.80
2022-11-29T18:49:09.684Z,82.70
2022-11-29T18:51:38.192Z,82.70
2022-11-29T18:54:06.507Z,82.90
2022-11-29T18:56:35.168Z,83.00
2022-11-29T18:59:10.064Z,83.10
2022-11-29T19:01:41.204Z,83.00
2022-11-29T19:04:13.710Z,82.70
2022-11-29T19:06:41.483Z,82.80
2022-11-29T19:09:13.288Z,82.90
2022-11-29T19:11:40.764Z,82.60
2022-11-29T19:14:13.427Z,82.50
2022-11-29T19:16:45.518Z,82.30
2022-11-29T19:19:12.665Z,82.10
2022-11-29T19:21:40.067Z,81.80
2022-11-29T19:24:13.551Z,81.70
2022-11-29T19:26:41.123Z,82.00
2022-11-29T19:29:07.891Z,82.20
2022-11-29T19:31:34.593Z,82.10
2022-11-29T19:34:01.842Z,82.30
2022-11-29T19:36:30.666Z,82.50
2022-11-29T19:39:01.659Z,82.60
2022-11-29T19:41:31.050Z,82.70
2022-11-29T19:43:59.352Z,82.70
2022-11-29T19:46:29.722Z,82.90
2022-11-29T19:48:58.317Z,83.00
2022-11-29T19:51:26.707Z,83.10
2022-11-29T19:53:55.212Z,83.10
2022-11-29T19:56:23.111Z,82.90
2022-11-29T19:58:51.257Z,82.80
2022-11-29T20:01:22.464Z,82.90
2022-11-29T20:03:49.941Z,83.00
2022-11-29T20:06:17.855Z,82.90
2022-11-29T20:08:45.321Z,82.90
2022-11-29T20:11:21.136Z,82.70
2022-11-29T20:13:53.667Z,82.40
2022-11-29T20:16:22.472Z,82.20
2022-11-29T20:18:51.391Z,82.30
2022-11-29T20:21:20.981Z,82.30
2022-11-29T20:23:48.775Z,82.30
2022-11-29T20:26:20.489Z,82.30
2022-11-29T20:28:47.906Z,82.40
2022-11-29T20:31:21.309Z,82.50
2022-11-29T20:33:49.478Z,82.40
2022-11-29T20:36:44.033Z,82.40
2022-11-29T20:39:49.795Z,82.50
2022-11-29T20:42:28.911Z,82.50
2022-11-29T20:44:58.918Z,82.30
2022-11-29T20:47:40.291Z,82.20
2022-11-29T20:50:13.402Z,82.20
2022-11-29T20:52:54.938Z,82.20
2022-11-29T20:55:21.804Z,82.30
2022-11-29T20:57:49.834Z,82.50
2022-11-29T21:00:17.133Z,82.60
2022-11-29T21:02:44.121Z,82.70
2022-11-29T21:05:11.281Z,82.80
2022-11-29T21:07:38.183Z,82.80
2022-11-29T21:10:05.951Z,83.00
2022-11-29T21:12:33.387Z,83.00
2022-11-29T21:15:00.591Z,83.10
2022-11-29T21:17:33.427Z,83.10
2022-11-29T21:20:01.210Z,83.10
2022-11-29T21:22:38.761Z,83.20
2022-11-29T21:25:14.076Z,83.10
2022-11-29T21:27:45.247Z,83.10
2022-11-29T21:30:22.283Z,83.00
2022-11-29T21:32:51.179Z,82.90
2022-11-29T21:35:18.605Z,83.00
2022-11-29T21:37:47.851Z,83.10
2022-11-29T21:40:15.379Z,83.10
2022-11-29T21:42:42.317Z,83.00
2022-11-29T21:45:15.231Z,82.90
2022-11-29T21:47:43.873Z,82.70
2022-11-29T21:50:12.496Z,82.60
2022-11-29T21:52:39.692Z,82.60
2022-11-29T21:55:06.816Z,82.60
2022-11-29T21:57:33.576Z,82.50
2022-11-29T22:00:00.294Z,82.40
2022-11-29T22:02:27.126Z,82.40
2022-11-29T22:04:53.934Z,82.40
2022-11-29T22:07:20.887Z,82.40
2022-11-29T22:09:47.729Z,82.30
2022-11-29T22:12:33.273Z,82.40
2022-11-29T22:15:01.198Z,82.40
2022-11-29T22:17:27.965Z,82.40
2022-11-29T22:19:54.768Z,82.30
2022-11-29T22:22:21.691Z,82.20
2022-11-29T22:24:48.721Z,82.10
2022-11-29T22:27:18.131Z,82.00
2022-11-29T22:29:45.145Z,82.00
2022-11-29T22:32:11.920Z,82.10
2022-11-29T22:34:38.766Z,82.00
2022-11-29T22:37:06.047Z,82.00
2022-11-29T22:39:32.930Z,81.90
2022-11-29T22:41:59.741Z,81.80
2022-11-29T22:44:26.465Z,81.70
2022-11-29T22:46:53.534Z,81.60
2022-11-29T22:49:20.451Z,81.50
2022-11-29T22:51:47.323Z,81.40
2022-11-29T22:54:18.037Z,81.30
2022-11-29T22:56:45.703Z,81.20
2022-11-29T22:59:12.777Z,81.20
2022-11-29T23:01:41.351Z,81.20
2022-11-29T23:04:10.077Z,81.30
2022-11-29T23:06:40.995Z,81.30
2022-11-29T23:09:18.894Z,81.30
2022-11-29T23:11:50.777Z,81.30
2022-11-29T23:14:18.836Z,81.10
2022-11-29T23:16:46.038Z,81.20
2022-11-29T23:19:16.187Z,81.30
2022-11-29T23:21:45.517Z,81.40
2022-11-29T23:24:13.686Z,81.50
2022-11-29T23:26:43.932Z,81.40
2022-11-29T23:29:14.235Z,81.50
2022-11-29T23:31:41.389Z,81.60
2022-11-29T23:34:08.878Z,81.60
2022-11-29T23:36:35.748Z,81.50
2022-11-29T23:39:05.138Z,81.60
2022-11-29T23:41:32.126Z,81.60
2022-11-29T23:43:59.785Z,81.50
2022-11-29T23:46:26.729Z,81.50
2022-11-29T23:48:53.508Z,81.40
2022-11-29T23:51:20.644Z,81.20
2022-11-29T23:53:54.029Z,81.10
2022-11-29T23:56:21.672Z,81.10
2022-11-29T23:58:48.922Z,81.10
